Glenford, Ohio
Current Conditions -  °F | °C
As of 5:54 AM on Friday 28 Nov 2014 (Local Time) from KVTA Reporting Station
Few Clouds Few Clouds  
Wind Chill: 16°   Ceiling: Unl
Heat Index: 24°   Visibility: 10mi
Dew Point: 18°   Wind: 7mph
Humidity: 77%   Direction: 270°W
Pressure: 30.34"   Gusts: NA
Location:  39.89°N, 82.32°W
Report Text: KVTA 281054Z AUTO 27006KT 10SM FEW044 M04/M08 A3034 RMK AO2 SLP286 T10441078
Loading
Personal Weather Stations






























Interactive Weather Map New forecast layout! Learn more

10-Day Weather Forecast

Advertisements
Track Severe Weather on mobile